sensor_id;sensor_type;location;lat;lon;timestamp;P1;durP1;ratioP1;P2;durP2;ratioP2
15748;SDS011;7976;52.526;13.326;2022-12-10T00:02:13;25.77;;;7.80;;
15748;SDS011;7976;52.526;13.326;2022-12-10T00:04:41;21.70;;;8.40;;
15748;SDS011;7976;52.526;13.326;2022-12-10T00:07:08;24.70;;;8.27;;
15748;SDS011;7976;52.526;13.326;2022-12-10T00:09:35;20.30;;;7.50;;
15748;SDS011;7976;52.526;13.326;2022-12-10T00:12:02;25.07;;;8.30;;
15748;SDS011;7976;52.526;13.326;2022-12-10T00:14:30;22.10;;;9.90;;
15748;SDS011;7976;52.526;13.326;2022-12-10T00:16:56;24.43;;;10.17;;
15748;SDS011;7976;52.526;13.326;2022-12-10T00:19:24;21.83;;;9.47;;
15748;SDS011;7976;52.526;13.326;2022-12-10T00:21:52;21.27;;;7.47;;
15748;SDS011;7976;52.526;13.326;2022-12-10T00:24:19;20.17;;;7.47;;
15748;SDS011;7976;52.526;13.326;2022-12-10T00:26:46;22.57;;;7.97;;
15748;SDS011;7976;52.526;13.326;2022-12-10T00:29:12;22.53;;;8.73;;
15748;SDS011;7976;52.526;13.326;2022-12-10T00:31:40;21.30;;;8.07;;
15748;SDS011;7976;52.526;13.326;2022-12-10T00:34:08;24.70;;;8.23;;
15748;SDS011;7976;52.526;13.326;2022-12-10T00:36:37;20.97;;;7.67;;
15748;SDS011;7976;52.526;13.326;2022-12-10T00:39:10;25.03;;;8.47;;
15748;SDS011;7976;52.526;13.326;2022-12-10T00:41:40;20.27;;;7.47;;
15748;SDS011;7976;52.526;13.326;2022-12-10T00:44:08;23.80;;;8.20;;
15748;SDS011;7976;52.526;13.326;2022-12-10T00:46:37;21.57;;;7.13;;
15748;SDS011;7976;52.526;13.326;2022-12-10T00:49:04;21.70;;;7.83;;
15748;SDS011;7976;52.526;13.326;2022-12-10T00:51:31;25.10;;;10.03;;
15748;SDS011;7976;52.526;13.326;2022-12-10T00:53:58;24.90;;;9.70;;
15748;SDS011;7976;52.526;13.326;2022-12-10T00:56:27;25.83;;;10.23;;
15748;SDS011;7976;52.526;13.326;2022-12-10T00:58:58;22.30;;;9.47;;
15748;SDS011;7976;52.526;13.326;2022-12-10T01:01:27;24.23;;;10.00;;
15748;SDS011;7976;52.526;13.326;2022-12-10T01:03:58;19.83;;;7.37;;
15748;SDS011;7976;52.526;13.326;2022-12-10T01:06:28;24.27;;;8.07;;
15748;SDS011;7976;52.526;13.326;2022-12-10T01:08:58;22.53;;;7.63;;
15748;SDS011;7976;52.526;13.326;2022-12-10T01:11:30;23.97;;;10.63;;
15748;SDS011;7976;52.526;13.326;2022-12-10T01:14:00;24.93;;;9.80;;
15748;SDS011;7976;52.526;13.326;2022-12-10T01:16:27;24.97;;;10.40;;
15748;SDS011;7976;52.526;13.326;2022-12-10T01:18:54;23.47;;;9.53;;
15748;SDS011;7976;52.526;13.326;2022-12-10T01:21:24;25.67;;;10.43;;
15748;SDS011;7976;52.526;13.326;2022-12-10T01:23:56;21.13;;;8.87;;
15748;SDS011;7976;52.526;13.326;2022-12-10T01:26:25;21.90;;;9.67;;
15748;SDS011;7976;52.526;13.326;2022-12-10T01:28:56;24.00;;;9.27;;
15748;SDS011;7976;52.526;13.326;2022-12-10T01:31:26;22.20;;;9.73;;
15748;SDS011;7976;52.526;13.326;2022-12-10T01:33:55;21.93;;;6.70;;
15748;SDS011;7976;52.526;13.326;2022-12-10T01:36:26;26.87;;;8.37;;
15748;SDS011;7976;52.526;13.326;2022-12-10T01:38:56;23.40;;;10.50;;
15748;SDS011;7976;52.526;13.326;2022-12-10T01:41:24;23.30;;;9.67;;
15748;SDS011;7976;52.526;13.326;2022-12-10T01:43:54;22.03;;;8.53;;
15748;SDS011;7976;52.526;13.326;2022-12-10T01:46:25;19.67;;;7.40;;
15748;SDS011;7976;52.526;13.326;2022-12-10T01:48:55;17.30;;;6.30;;
15748;SDS011;7976;52.526;13.326;2022-12-10T01:51:24;21.57;;;9.20;;
15748;SDS011;7976;52.526;13.326;2022-12-10T01:53:55;24.00;;;9.83;;
15748;SDS011;7976;52.526;13.326;2022-12-10T01:56:22;21.13;;;7.13;;
15748;SDS011;7976;52.526;13.326;2022-12-10T01:58:50;23.47;;;9.27;;
15748;SDS011;7976;52.526;13.326;2022-12-10T02:01:26;19.93;;;7.30;;
15748;SDS011;7976;52.526;13.326;2022-12-10T02:04:04;20.90;;;6.87;;
15748;SDS011;7976;52.526;13.326;2022-12-10T02:06:45;21.90;;;9.80;;
15748;SDS011;7976;52.526;13.326;2022-12-10T02:09:24;22.10;;;9.63;;
15748;SDS011;7976;52.526;13.326;2022-12-10T02:12:05;21.93;;;9.47;;
15748;SDS011;7976;52.526;13.326;2022-12-10T02:14:43;18.70;;;6.43;;
15748;SDS011;7976;52.526;13.326;2022-12-10T02:20:03;19.97;;;6.53;;
15748;SDS011;7976;52.526;13.326;2022-12-10T02:22:40;17.63;;;6.60;;
15748;SDS011;7976;52.526;13.326;2022-12-10T02:25:13;18.00;;;6.70;;
15748;SDS011;7976;52.526;13.326;2022-12-10T02:27:45;22.43;;;9.47;;
15748;SDS011;7976;52.526;13.326;2022-12-10T02:30:20;25.10;;;10.50;;
15748;SDS011;7976;52.526;13.326;2022-12-10T02:32:48;22.30;;;9.90;;
15748;SDS011;7976;52.526;13.326;2022-12-10T02:35:19;22.23;;;9.87;;
15748;SDS011;7976;52.526;13.326;2022-12-10T02:37:55;19.97;;;8.97;;
15748;SDS011;7976;52.526;13.326;2022-12-10T02:40:30;25.13;;;10.27;;
15748;SDS011;7976;52.526;13.326;2022-12-10T02:43:02;21.77;;;9.37;;
15748;SDS011;7976;52.526;13.326;2022-12-10T02:45:32;23.50;;;9.50;;
15748;SDS011;7976;52.526;13.326;2022-12-10T02:48:03;24.00;;;9.93;;
15748;SDS011;7976;52.526;13.326;2022-12-10T02:50:37;23.60;;;10.33;;
15748;SDS011;7976;52.526;13.326;2022-12-10T02:53:04;21.93;;;10.00;;
15748;SDS011;7976;52.526;13.326;2022-12-10T02:55:38;23.07;;;9.27;;
15748;SDS011;7976;52.526;13.326;2022-12-10T02:58:38;23.33;;;10.17;;
15748;SDS011;7976;52.526;13.326;2022-12-10T03:01:23;25.43;;;10.43;;
15748;SDS011;7976;52.526;13.326;2022-12-10T03:04:04;23.57;;;8.30;;
15748;SDS011;7976;52.526;13.326;2022-12-10T03:06:41;22.07;;;9.53;;
15748;SDS011;7976;52.526;13.326;2022-12-10T03:09:17;22.20;;;8.43;;
15748;SDS011;7976;52.526;13.326;2022-12-10T03:11:49;20.17;;;7.33;;
15748;SDS011;7976;52.526;13.326;2022-12-10T03:14:32;21.10;;;7.37;;
15748;SDS011;7976;52.526;13.326;2022-12-10T03:17:02;18.90;;;7.23;;
15748;SDS011;7976;52.526;13.326;2022-12-10T03:19:34;25.53;;;10.83;;
15748;SDS011;7976;52.526;13.326;2022-12-10T03:22:39;23.23;;;10.50;;
15748;SDS011;7976;52.526;13.326;2022-12-10T03:29:39;25.53;;;11.10;;
15748;SDS011;7976;52.526;13.326;2022-12-10T03:32:51;24.87;;;9.83;;
15748;SDS011;7976;52.526;13.326;2022-12-10T03:35:59;25.60;;;10.77;;
15748;SDS011;7976;52.526;13.326;2022-12-10T03:38:30;27.73;;;10.80;;
15748;SDS011;7976;52.526;13.326;2022-12-10T03:48:18;22.60;;;8.07;;
15748;SDS011;7976;52.526;13.326;2022-12-10T03:51:41;25.93;;;8.40;;
15748;SDS011;7976;52.526;13.326;2022-12-10T03:56:27;26.00;;;10.57;;
15748;SDS011;7976;52.526;13.326;2022-12-10T03:59:26;24.50;;;11.00;;
15748;SDS011;7976;52.526;13.326;2022-12-10T04:01:59;24.43;;;10.60;;
15748;SDS011;7976;52.526;13.326;2022-12-10T04:05:12;26.80;;;11.17;;
15748;SDS011;7976;52.526;13.326;2022-12-10T04:08:02;22.30;;;8.00;;
15748;SDS011;7976;52.526;13.326;2022-12-10T04:13:30;21.50;;;8.57;;
15748;SDS011;7976;52.526;13.326;2022-12-10T04:16:46;22.53;;;7.77;;
15748;SDS011;7976;52.526;13.326;2022-12-10T04:19:34;22.70;;;8.47;;
15748;SDS011;7976;52.526;13.326;2022-12-10T04:22:52;24.17;;;8.27;;
15748;SDS011;7976;52.526;13.326;2022-12-10T04:25:37;21.57;;;7.63;;
15748;SDS011;7976;52.526;13.326;2022-12-10T04:28:22;25.97;;;11.20;;
15748;SDS011;7976;52.526;13.326;2022-12-10T04:30:49;27.07;;;11.40;;
15748;SDS011;7976;52.526;13.326;2022-12-10T04:33:15;23.83;;;9.73;;
15748;SDS011;7976;52.526;13.326;2022-12-10T04:35:44;23.93;;;7.93;;
15748;SDS011;7976;52.526;13.326;2022-12-10T04:38:11;22.73;;;8.70;;
15748;SDS011;7976;52.526;13.326;2022-12-10T04:40:38;21.73;;;10.50;;
15748;SDS011;7976;52.526;13.326;2022-12-10T04:43:05;22.17;;;8.67;;
15748;SDS011;7976;52.526;13.326;2022-12-10T04:45:33;22.57;;;7.87;;
15748;SDS011;7976;52.526;13.326;2022-12-10T04:48:01;24.00;;;8.63;;
15748;SDS011;7976;52.526;13.326;2022-12-10T04:50:29;22.30;;;8.67;;
15748;SDS011;7976;52.526;13.326;2022-12-10T04:52:57;21.80;;;8.40;;
15748;SDS011;7976;52.526;13.326;2022-12-10T04:55:25;21.53;;;9.73;;
15748;SDS011;7976;52.526;13.326;2022-12-10T04:57:52;23.43;;;10.00;;
15748;SDS011;7976;52.526;13.326;2022-12-10T05:00:19;23.40;;;8.60;;
15748;SDS011;7976;52.526;13.326;2022-12-10T05:02:47;24.03;;;8.87;;
15748;SDS011;7976;52.526;13.326;2022-12-10T05:05:16;28.77;;;11.33;;
15748;SDS011;7976;52.526;13.326;2022-12-10T05:07:43;24.77;;;10.53;;
15748;SDS011;7976;52.526;13.326;2022-12-10T05:10:11;22.97;;;9.63;;
15748;SDS011;7976;52.526;13.326;2022-12-10T05:12:38;23.23;;;8.97;;
15748;SDS011;7976;52.526;13.326;2022-12-10T05:15:05;23.47;;;8.57;;
15748;SDS011;7976;52.526;13.326;2022-12-10T05:17:33;20.23;;;7.80;;
15748;SDS011;7976;52.526;13.326;2022-12-10T05:20:00;21.07;;;7.80;;
15748;SDS011;7976;52.526;13.326;2022-12-10T05:22:27;23.17;;;8.17;;
15748;SDS011;7976;52.526;13.326;2022-12-10T05:25:14;23.07;;;10.33;;
15748;SDS011;7976;52.526;13.326;2022-12-10T05:27:41;19.47;;;7.20;;
15748;SDS011;7976;52.526;13.326;2022-12-10T05:30:08;21.63;;;8.33;;
15748;SDS011;7976;52.526;13.326;2022-12-10T05:32:36;20.50;;;7.07;;
15748;SDS011;7976;52.526;13.326;2022-12-10T05:35:04;21.77;;;9.13;;
15748;SDS011;7976;52.526;13.326;2022-12-10T05:37:32;24.27;;;10.07;;
15748;SDS011;7976;52.526;13.326;2022-12-10T05:39:59;20.87;;;9.77;;
15748;SDS011;7976;52.526;13.326;2022-12-10T05:42:28;22.53;;;9.27;;
15748;SDS011;7976;52.526;13.326;2022-12-10T05:44:54;20.40;;;7.20;;
15748;SDS011;7976;52.526;13.326;2022-12-10T05:47:21;21.00;;;7.77;;
15748;SDS011;7976;52.526;13.326;2022-12-10T05:49:48;22.47;;;9.60;;
15748;SDS011;7976;52.526;13.326;2022-12-10T05:52:15;20.20;;;7.40;;
15748;SDS011;7976;52.526;13.326;2022-12-10T05:54:42;20.63;;;8.23;;
15748;SDS011;7976;52.526;13.326;2022-12-10T05:57:09;19.57;;;7.47;;
15748;SDS011;7976;52.526;13.326;2022-12-10T05:59:38;19.07;;;7.03;;
15748;SDS011;7976;52.526;13.326;2022-12-10T06:02:05;19.07;;;6.80;;
15748;SDS011;7976;52.526;13.326;2022-12-10T06:04:32;23.10;;;7.37;;
15748;SDS011;7976;52.526;13.326;2022-12-10T06:06:59;20.90;;;9.20;;
15748;SDS011;7976;52.526;13.326;2022-12-10T06:09:25;19.47;;;7.50;;
15748;SDS011;7976;52.526;13.326;2022-12-10T06:11:52;23.43;;;7.73;;
15748;SDS011;7976;52.526;13.326;2022-12-10T06:14:19;18.37;;;7.30;;
15748;SDS011;7976;52.526;13.326;2022-12-10T06:16:47;16.70;;;6.30;;
15748;SDS011;7976;52.526;13.326;2022-12-10T06:19:14;18.57;;;7.00;;
15748;SDS011;7976;52.526;13.326;2022-12-10T06:21:41;19.13;;;7.30;;
15748;SDS011;7976;52.526;13.326;2022-12-10T06:24:08;18.47;;;6.43;;
15748;SDS011;7976;52.526;13.326;2022-12-10T06:26:35;18.83;;;7.40;;
15748;SDS011;7976;52.526;13.326;2022-12-10T06:29:02;20.07;;;7.37;;
15748;SDS011;7976;52.526;13.326;2022-12-10T06:31:29;18.30;;;7.87;;
15748;SDS011;7976;52.526;13.326;2022-12-10T06:33:57;18.40;;;7.40;;
15748;SDS011;7976;52.526;13.326;2022-12-10T06:36:24;19.10;;;7.00;;
15748;SDS011;7976;52.526;13.326;2022-12-10T06:38:51;18.90;;;7.90;;
15748;SDS011;7976;52.526;13.326;2022-12-10T06:41:18;20.03;;;8.37;;
15748;SDS011;7976;52.526;13.326;2022-12-10T06:43:46;18.37;;;7.17;;
15748;SDS011;7976;52.526;13.326;2022-12-10T06:46:17;18.97;;;7.40;;
15748;SDS011;7976;52.526;13.326;2022-12-10T06:48:46;24.87;;;8.97;;
15748;SDS011;7976;52.526;13.326;2022-12-10T06:51:14;21.57;;;8.40;;
15748;SDS011;7976;52.526;13.326;2022-12-10T06:53:43;20.27;;;7.87;;
15748;SDS011;7976;52.526;13.326;2022-12-10T06:56:11;22.20;;;10.27;;
15748;SDS011;7976;52.526;13.326;2022-12-10T06:58:40;26.47;;;12.17;;
15748;SDS011;7976;52.526;13.326;2022-12-10T07:01:10;24.93;;;11.00;;
15748;SDS011;7976;52.526;13.326;2022-12-10T07:03:40;20.63;;;7.50;;
15748;SDS011;7976;52.526;13.326;2022-12-10T07:06:08;17.20;;;7.10;;
15748;SDS011;7976;52.526;13.326;2022-12-10T07:08:38;17.73;;;6.63;;
15748;SDS011;7976;52.526;13.326;2022-12-10T07:11:06;15.60;;;6.50;;
15748;SDS011;7976;52.526;13.326;2022-12-10T07:13:35;17.23;;;6.70;;
15748;SDS011;7976;52.526;13.326;2022-12-10T07:16:03;18.27;;;7.33;;
15748;SDS011;7976;52.526;13.326;2022-12-10T07:18:38;19.13;;;7.03;;
15748;SDS011;7976;52.526;13.326;2022-12-10T07:21:12;15.43;;;5.90;;
15748;SDS011;7976;52.526;13.326;2022-12-10T07:23:41;16.47;;;5.93;;
15748;SDS011;7976;52.526;13.326;2022-12-10T07:26:08;14.73;;;5.80;;
15748;SDS011;7976;52.526;13.326;2022-12-10T07:28:35;18.27;;;8.27;;
15748;SDS011;7976;52.526;13.326;2022-12-10T07:31:02;18.03;;;7.80;;
15748;SDS011;7976;52.526;13.326;2022-12-10T07:33:32;18.50;;;7.60;;
15748;SDS011;7976;52.526;13.326;2022-12-10T07:35:59;21.03;;;10.90;;
15748;SDS011;7976;52.526;13.326;2022-12-10T07:38:29;22.37;;;10.63;;
15748;SDS011;7976;52.526;13.326;2022-12-10T07:41:01;29.80;;;15.03;;
15748;SDS011;7976;52.526;13.326;2022-12-10T07:43:29;21.40;;;9.90;;
15748;SDS011;7976;52.526;13.326;2022-12-10T07:45:56;25.73;;;14.73;;
15748;SDS011;7976;52.526;13.326;2022-12-10T07:48:30;32.40;;;21.10;;
15748;SDS011;7976;52.526;13.326;2022-12-10T07:50:57;21.60;;;11.93;;
15748;SDS011;7976;52.526;13.326;2022-12-10T07:53:24;21.07;;;9.20;;
15748;SDS011;7976;52.526;13.326;2022-12-10T07:55:51;19.97;;;9.33;;
15748;SDS011;7976;52.526;13.326;2022-12-10T07:58:19;19.20;;;7.13;;
15748;SDS011;7976;52.526;13.326;2022-12-10T08:00:46;18.37;;;7.30;;
15748;SDS011;7976;52.526;13.326;2022-12-10T08:03:13;19.27;;;9.07;;
15748;SDS011;7976;52.526;13.326;2022-12-10T08:05:40;19.33;;;8.57;;
15748;SDS011;7976;52.526;13.326;2022-12-10T08:08:06;17.63;;;6.70;;
15748;SDS011;7976;52.526;13.326;2022-12-10T08:10:34;18.30;;;6.70;;
15748;SDS011;7976;52.526;13.326;2022-12-10T08:13:01;16.80;;;7.20;;
15748;SDS011;7976;52.526;13.326;2022-12-10T08:15:31;18.23;;;7.13;;
15748;SDS011;7976;52.526;13.326;2022-12-10T08:17:58;20.50;;;10.57;;
15748;SDS011;7976;52.526;13.326;2022-12-10T08:20:25;22.20;;;9.47;;
15748;SDS011;7976;52.526;13.326;2022-12-10T08:22:52;17.70;;;8.67;;
15748;SDS011;7976;52.526;13.326;2022-12-10T08:25:19;18.73;;;8.57;;
15748;SDS011;7976;52.526;13.326;2022-12-10T08:27:46;24.03;;;12.03;;
15748;SDS011;7976;52.526;13.326;2022-12-10T08:30:13;23.90;;;11.93;;
15748;SDS011;7976;52.526;13.326;2022-12-10T08:32:41;18.40;;;8.67;;
15748;SDS011;7976;52.526;13.326;2022-12-10T08:35:08;21.33;;;8.57;;
15748;SDS011;7976;52.526;13.326;2022-12-10T08:37:35;18.63;;;8.13;;
15748;SDS011;7976;52.526;13.326;2022-12-10T08:40:02;22.30;;;8.07;;
15748;SDS011;7976;52.526;13.326;2022-12-10T08:42:30;20.57;;;8.00;;
15748;SDS011;7976;52.526;13.326;2022-12-10T08:44:57;18.20;;;6.57;;
15748;SDS011;7976;52.526;13.326;2022-12-10T08:47:24;20.57;;;7.97;;
15748;SDS011;7976;52.526;13.326;2022-12-10T08:49:52;17.13;;;6.70;;
15748;SDS011;7976;52.526;13.326;2022-12-10T08:52:19;17.83;;;7.30;;
15748;SDS011;7976;52.526;13.326;2022-12-10T08:54:46;21.33;;;8.20;;
15748;SDS011;7976;52.526;13.326;2022-12-10T08:57:13;17.33;;;6.97;;
15748;SDS011;7976;52.526;13.326;2022-12-10T08:59:39;15.37;;;6.97;;
15748;SDS011;7976;52.526;13.326;2022-12-10T09:02:07;17.30;;;7.07;;
15748;SDS011;7976;52.526;13.326;2022-12-10T09:04:37;17.33;;;7.17;;
15748;SDS011;7976;52.526;13.326;2022-12-10T09:07:07;18.10;;;7.43;;
15748;SDS011;7976;52.526;13.326;2022-12-10T09:09:34;16.57;;;7.13;;
15748;SDS011;7976;52.526;13.326;2022-12-10T09:12:02;20.70;;;8.20;;
15748;SDS011;7976;52.526;13.326;2022-12-10T09:14:29;16.63;;;7.83;;
15748;SDS011;7976;52.526;13.326;2022-12-10T09:16:56;17.47;;;7.63;;
15748;SDS011;7976;52.526;13.326;2022-12-10T09:19:23;16.47;;;6.93;;
15748;SDS011;7976;52.526;13.326;2022-12-10T09:21:50;14.37;;;6.87;;
15748;SDS011;7976;52.526;13.326;2022-12-10T09:24:18;18.83;;;7.13;;
15748;SDS011;7976;52.526;13.326;2022-12-10T09:26:45;19.13;;;7.30;;
15748;SDS011;7976;52.526;13.326;2022-12-10T09:29:12;14.10;;;6.50;;
15748;SDS011;7976;52.526;13.326;2022-12-10T09:31:39;20.87;;;7.43;;
15748;SDS011;7976;52.526;13.326;2022-12-10T09:34:06;19.67;;;7.40;;
15748;SDS011;7976;52.526;13.326;2022-12-10T09:36:33;17.13;;;6.93;;
15748;SDS011;7976;52.526;13.326;2022-12-10T09:39:00;20.67;;;7.43;;
15748;SDS011;7976;52.526;13.326;2022-12-10T09:41:49;17.27;;;6.90;;
15748;SDS011;7976;52.526;13.326;2022-12-10T09:44:42;16.97;;;6.80;;
15748;SDS011;7976;52.526;13.326;2022-12-10T09:47:23;16.97;;;7.23;;
15748;SDS011;7976;52.526;13.326;2022-12-10T09:49:59;17.13;;;6.67;;
15748;SDS011;7976;52.526;13.326;2022-12-10T09:52:39;18.23;;;7.13;;
15748;SDS011;7976;52.526;13.326;2022-12-10T09:55:14;20.33;;;7.93;;
15748;SDS011;7976;52.526;13.326;2022-12-10T09:57:47;20.73;;;7.83;;
15748;SDS011;7976;52.526;13.326;2022-12-10T10:00:19;16.93;;;6.67;;
15748;SDS011;7976;52.526;13.326;2022-12-10T10:02:51;17.97;;;6.73;;
15748;SDS011;7976;52.526;13.326;2022-12-10T10:05:25;17.90;;;6.77;;
15748;SDS011;7976;52.526;13.326;2022-12-10T10:07:56;16.93;;;6.80;;
15748;SDS011;7976;52.526;13.326;2022-12-10T10:10:29;15.77;;;6.53;;
15748;SDS011;7976;52.526;13.326;2022-12-10T10:13:01;15.50;;;6.57;;
15748;SDS011;7976;52.526;13.326;2022-12-10T10:15:43;17.27;;;6.90;;
15748;SDS011;7976;52.526;13.326;2022-12-10T10:18:13;15.20;;;7.17;;
15748;SDS011;7976;52.526;13.326;2022-12-10T10:20:49;16.03;;;6.77;;
15748;SDS011;7976;52.526;13.326;2022-12-10T10:23:17;23.40;;;8.60;;
15748;SDS011;7976;52.526;13.326;2022-12-10T10:25:44;18.20;;;7.70;;
15748;SDS011;7976;52.526;13.326;2022-12-10T10:28:16;18.10;;;6.87;;
15748;SDS011;7976;52.526;13.326;2022-12-10T10:30:46;21.83;;;8.10;;
15748;SDS011;7976;52.526;13.326;2022-12-10T10:33:16;20.63;;;7.80;;
15748;SDS011;7976;52.526;13.326;2022-12-10T10:35:44;20.23;;;8.50;;
15748;SDS011;7976;52.526;13.326;2022-12-10T10:38:17;18.20;;;7.50;;
15748;SDS011;7976;52.526;13.326;2022-12-10T10:40:49;15.63;;;6.97;;
15748;SDS011;7976;52.526;13.326;2022-12-10T10:43:22;22.70;;;8.57;;
15748;SDS011;7976;52.526;13.326;2022-12-10T10:45:54;15.90;;;6.87;;
15748;SDS011;7976;52.526;13.326;2022-12-10T10:48:26;18.70;;;7.57;;
15748;SDS011;7976;52.526;13.326;2022-12-10T10:50:55;20.30;;;8.10;;
15748;SDS011;7976;52.526;13.326;2022-12-10T10:53:33;19.47;;;8.07;;
15748;SDS011;7976;52.526;13.326;2022-12-10T10:56:09;18.23;;;7.13;;
15748;SDS011;7976;52.526;13.326;2022-12-10T10:58:56;20.23;;;8.13;;
15748;SDS011;7976;52.526;13.326;2022-12-10T11:01:42;16.10;;;6.90;;
15748;SDS011;7976;52.526;13.326;2022-12-10T11:04:13;17.53;;;7.83;;
15748;SDS011;7976;52.526;13.326;2022-12-10T11:06:43;19.20;;;7.33;;
15748;SDS011;7976;52.526;13.326;2022-12-10T11:09:13;19.30;;;7.90;;
15748;SDS011;7976;52.526;13.326;2022-12-10T11:11:49;15.20;;;7.27;;
15748;SDS011;7976;52.526;13.326;2022-12-10T11:14:24;16.58;;;7.30;;
15748;SDS011;7976;52.526;13.326;2022-12-10T11:17:00;22.53;;;8.53;;
15748;SDS011;7976;52.526;13.326;2022-12-10T11:19:41;59.93;;;24.93;;
15748;SDS011;7976;52.526;13.326;2022-12-10T11:22:19;74.47;;;27.27;;
15748;SDS011;7976;52.526;13.326;2022-12-10T11:24:49;28.27;;;11.43;;
15748;SDS011;7976;52.526;13.326;2022-12-10T11:27:18;21.77;;;9.30;;
15748;SDS011;7976;52.526;13.326;2022-12-10T11:30:10;21.83;;;8.53;;
15748;SDS011;7976;52.526;13.326;2022-12-10T11:33:06;18.57;;;8.03;;
15748;SDS011;7976;52.526;13.326;2022-12-10T11:35:50;20.00;;;8.17;;
15748;SDS011;7976;52.526;13.326;2022-12-10T11:38:35;18.97;;;8.30;;
15748;SDS011;7976;52.526;13.326;2022-12-10T11:41:16;22.67;;;8.43;;
15748;SDS011;7976;52.526;13.326;2022-12-10T11:43:56;22.13;;;8.33;;
15748;SDS011;7976;52.526;13.326;2022-12-10T11:46:55;18.03;;;8.47;;
15748;SDS011;7976;52.526;13.326;2022-12-10T11:49:42;26.50;;;9.83;;
15748;SDS011;7976;52.526;13.326;2022-12-10T11:52:30;20.57;;;8.40;;
15748;SDS011;7976;52.526;13.326;2022-12-10T11:55:15;19.13;;;8.07;;
15748;SDS011;7976;52.526;13.326;2022-12-10T11:57:59;16.40;;;6.80;;
15748;SDS011;7976;52.526;13.326;2022-12-10T12:00:53;18.30;;;7.75;;
15748;SDS011;7976;52.526;13.326;2022-12-10T12:06:46;17.50;;;7.70;;
15748;SDS011;7976;52.526;13.326;2022-12-10T12:09:30;18.37;;;7.27;;
15748;SDS011;7976;52.526;13.326;2022-12-10T12:12:16;19.00;;;7.63;;
15748;SDS011;7976;52.526;13.326;2022-12-10T12:14:57;17.50;;;7.30;;
15748;SDS011;7976;52.526;13.326;2022-12-10T12:17:31;20.10;;;9.07;;
15748;SDS011;7976;52.526;13.326;2022-12-10T12:20:11;21.30;;;8.07;;
15748;SDS011;7976;52.526;13.326;2022-12-10T12:22:46;20.80;;;8.27;;
15748;SDS011;7976;52.526;13.326;2022-12-10T12:25:20;20.33;;;7.80;;
15748;SDS011;7976;52.526;13.326;2022-12-10T12:27:53;19.97;;;7.87;;
15748;SDS011;7976;52.526;13.326;2022-12-10T12:30:31;24.27;;;8.60;;
15748;SDS011;7976;52.526;13.326;2022-12-10T12:33:02;20.83;;;8.80;;
15748;SDS011;7976;52.526;13.326;2022-12-10T12:35:40;18.87;;;8.13;;
15748;SDS011;7976;52.526;13.326;2022-12-10T12:38:18;24.30;;;9.63;;
15748;SDS011;7976;52.526;13.326;2022-12-10T12:40:56;22.83;;;8.63;;
15748;SDS011;7976;52.526;13.326;2022-12-10T12:43:32;39.70;;;16.33;;
15748;SDS011;7976;52.526;13.326;2022-12-10T12:46:12;34.93;;;11.90;;
15748;SDS011;7976;52.526;13.326;2022-12-10T12:48:52;27.40;;;10.57;;
15748;SDS011;7976;52.526;13.326;2022-12-10T12:51:34;23.17;;;9.90;;
15748;SDS011;7976;52.526;13.326;2022-12-10T12:54:10;21.57;;;9.20;;
15748;SDS011;7976;52.526;13.326;2022-12-10T12:59:54;20.70;;;8.40;;
15748;SDS011;7976;52.526;13.326;2022-12-10T13:02:42;24.47;;;8.77;;
15748;SDS011;7976;52.526;13.326;2022-12-10T13:05:23;30.40;;;12.70;;
15748;SDS011;7976;52.526;13.326;2022-12-10T13:08:23;23.63;;;10.17;;
15748;SDS011;7976;52.526;13.326;2022-12-10T13:10:59;22.47;;;10.00;;
15748;SDS011;7976;52.526;13.326;2022-12-10T13:14:04;21.30;;;9.17;;
15748;SDS011;7976;52.526;13.326;2022-12-10T13:17:22;29.83;;;10.87;;
15748;SDS011;7976;52.526;13.326;2022-12-10T13:39:21;49.63;;;19.20;;
15748;SDS011;7976;52.526;13.326;2022-12-10T14:34:23;31.00;;;11.03;;
15748;SDS011;7976;52.526;13.326;2022-12-10T14:36:58;31.67;;;10.90;;
15748;SDS011;7976;52.526;13.326;2022-12-10T14:39:31;24.23;;;9.83;;
15748;SDS011;7976;52.526;13.326;2022-12-10T14:42:02;24.50;;;9.30;;
15748;SDS011;7976;52.526;13.326;2022-12-10T14:44:33;31.07;;;9.73;;
15748;SDS011;7976;52.526;13.326;2022-12-10T14:47:06;35.30;;;12.60;;
15748;SDS011;7976;52.526;13.326;2022-12-10T14:49:45;24.93;;;9.47;;
15748;SDS011;7976;52.526;13.326;2022-12-10T14:52:15;35.10;;;11.70;;
15748;SDS011;7976;52.526;13.326;2022-12-10T14:54:46;34.37;;;11.57;;
15748;SDS011;7976;52.526;13.326;2022-12-10T14:57:25;27.80;;;10.70;;
15748;SDS011;7976;52.526;13.326;2022-12-10T14:59:59;30.23;;;11.17;;
15748;SDS011;7976;52.526;13.326;2022-12-10T15:05:20;32.60;;;12.37;;
15748;SDS011;7976;52.526;13.326;2022-12-10T15:07:56;29.87;;;10.03;;
15748;SDS011;7976;52.526;13.326;2022-12-10T15:13:26;33.23;;;11.57;;
15748;SDS011;7976;52.526;13.326;2022-12-10T15:16:13;28.87;;;10.17;;
15748;SDS011;7976;52.526;13.326;2022-12-10T15:21:40;23.97;;;8.63;;
15748;SDS011;7976;52.526;13.326;2022-12-10T15:24:16;28.63;;;10.57;;
15748;SDS011;7976;52.526;13.326;2022-12-10T15:27:14;29.27;;;9.43;;
15748;SDS011;7976;52.526;13.326;2022-12-10T15:30:35;32.30;;;9.00;;
15748;SDS011;7976;52.526;13.326;2022-12-10T15:36:27;34.83;;;12.63;;
15748;SDS011;7976;52.526;13.326;2022-12-10T15:39:02;33.77;;;11.53;;
15748;SDS011;7976;52.526;13.326;2022-12-10T15:41:41;29.87;;;11.50;;
15748;SDS011;7976;52.526;13.326;2022-12-10T15:44:17;34.47;;;12.77;;
15748;SDS011;7976;52.526;13.326;2022-12-10T15:46:58;47.50;;;17.17;;
15748;SDS011;7976;52.526;13.326;2022-12-10T15:49:35;57.13;;;19.53;;
15748;SDS011;7976;52.526;13.326;2022-12-10T15:52:02;33.83;;;11.73;;
15748;SDS011;7976;52.526;13.326;2022-12-10T15:54:31;32.97;;;10.27;;
15748;SDS011;7976;52.526;13.326;2022-12-10T15:57:06;28.00;;;8.80;;
15748;SDS011;7976;52.526;13.326;2022-12-10T15:59:39;27.67;;;9.13;;
15748;SDS011;7976;52.526;13.326;2022-12-10T16:02:10;26.40;;;9.07;;
15748;SDS011;7976;52.526;13.326;2022-12-10T16:04:52;32.17;;;10.40;;
15748;SDS011;7976;52.526;13.326;2022-12-10T16:07:20;29.47;;;9.70;;
15748;SDS011;7976;52.526;13.326;2022-12-10T16:09:47;32.33;;;10.50;;
15748;SDS011;7976;52.526;13.326;2022-12-10T16:12:14;32.03;;;11.10;;
15748;SDS011;7976;52.526;13.326;2022-12-10T16:14:45;38.00;;;12.23;;
15748;SDS011;7976;52.526;13.326;2022-12-10T16:17:17;37.13;;;11.63;;
15748;SDS011;7976;52.526;13.326;2022-12-10T16:19:45;33.67;;;11.17;;
15748;SDS011;7976;52.526;13.326;2022-12-10T16:22:12;37.73;;;11.10;;
15748;SDS011;7976;52.526;13.326;2022-12-10T16:24:39;34.40;;;10.57;;
15748;SDS011;7976;52.526;13.326;2022-12-10T16:27:08;34.30;;;11.87;;
15748;SDS011;7976;52.526;13.326;2022-12-10T16:29:39;40.47;;;13.60;;
15748;SDS011;7976;52.526;13.326;2022-12-10T16:32:07;45.53;;;13.10;;
15748;SDS011;7976;52.526;13.326;2022-12-10T16:34:37;40.30;;;12.00;;
15748;SDS011;7976;52.526;13.326;2022-12-10T16:37:05;38.87;;;10.80;;
15748;SDS011;7976;52.526;13.326;2022-12-10T16:39:32;39.43;;;11.47;;
15748;SDS011;7976;52.526;13.326;2022-12-10T16:41:59;35.50;;;11.60;;
15748;SDS011;7976;52.526;13.326;2022-12-10T16:44:26;46.07;;;11.07;;
15748;SDS011;7976;52.526;13.326;2022-12-10T16:46:53;45.03;;;12.00;;
15748;SDS011;7976;52.526;13.326;2022-12-10T16:49:20;34.63;;;11.27;;
15748;SDS011;7976;52.526;13.326;2022-12-10T16:51:48;42.70;;;11.80;;
15748;SDS011;7976;52.526;13.326;2022-12-10T16:54:15;36.87;;;11.07;;
15748;SDS011;7976;52.526;13.326;2022-12-10T16:56:42;35.60;;;11.47;;